createdAt,value
2017-12-02T00:01:12.758Z,-2.74
2017-12-02T00:06:13.526Z,-2.59
2017-12-02T00:11:14.300Z,-2.60
2017-12-02T00:16:15.081Z,-2.56
2017-12-02T00:21:15.859Z,-2.60
2017-12-02T00:26:16.662Z,-2.71
2017-12-02T00:31:17.469Z,-2.65
2017-12-02T00:36:18.254Z,-2.65
2017-12-02T00:41:19.025Z,-2.61
2017-12-02T00:46:19.845Z,-2.45
2017-12-02T00:51:20.625Z,-2.44
2017-12-02T00:56:21.416Z,-2.27
2017-12-02T01:01:22.188Z,-2.00
2017-12-02T01:06:22.982Z,-1.93
2017-12-02T01:11:23.809Z,-1.96
2017-12-02T01:16:24.612Z,-2.06
2017-12-02T01:21:25.393Z,-2.03
2017-12-02T01:26:26.185Z,-2.05
2017-12-02T01:31:26.984Z,-2.13
2017-12-02T01:36:27.783Z,-2.12
2017-12-02T01:41:28.544Z,-2.22
2017-12-02T01:46:29.312Z,-2.25
2017-12-02T01:51:30.089Z,-2.38
2017-12-02T01:56:30.855Z,-2.47
2017-12-02T02:01:31.625Z,-2.48
2017-12-02T02:06:32.401Z,-2.51
2017-12-02T02:11:33.177Z,-2.41
2017-12-02T02:16:33.938Z,-2.54
2017-12-02T02:21:34.723Z,-2.66
2017-12-02T02:26:35.498Z,-2.36
2017-12-02T02:31:36.268Z,-2.35
2017-12-02T02:36:37.061Z,-2.42
2017-12-02T02:41:37.856Z,-2.33
2017-12-02T02:46:38.654Z,-2.27
2017-12-02T02:51:39.454Z,-2.37
2017-12-02T02:56:40.256Z,-2.40
2017-12-02T03:01:41.033Z,-2.39
2017-12-02T03:06:41.816Z,-2.46
2017-12-02T03:11:42.610Z,-2.57
2017-12-02T03:16:43.392Z,-2.56
2017-12-02T03:21:44.183Z,-2.64
2017-12-02T03:26:45.050Z,-2.72
2017-12-02T03:31:45.831Z,-2.74
2017-12-02T03:36:46.626Z,-2.61
2017-12-02T03:41:47.460Z,-2.56
2017-12-02T03:46:48.252Z,-2.71
2017-12-02T03:51:49.067Z,-2.81
2017-12-02T03:56:49.887Z,-2.86
2017-12-02T04:01:50.696Z,-2.82
2017-12-02T04:06:51.551Z,-2.78
2017-12-02T04:11:52.338Z,-2.81
2017-12-02T04:16:53.115Z,-3.10
2017-12-02T04:21:53.905Z,-3.02
2017-12-02T04:26:54.705Z,-3.11
2017-12-02T04:31:55.501Z,-3.05
2017-12-02T04:36:56.325Z,-3.27
2017-12-02T04:41:57.145Z,-3.19
2017-12-02T04:46:57.966Z,-3.26
2017-12-02T04:51:58.786Z,-3.36
2017-12-02T04:56:59.610Z,-3.38
2017-12-02T05:02:00.414Z,-3.43
2017-12-02T05:07:01.209Z,-3.53
2017-12-02T05:12:01.978Z,-3.54
2017-12-02T05:17:02.791Z,-3.53
2017-12-02T05:22:03.565Z,-3.30
2017-12-02T05:27:04.376Z,-3.12
2017-12-02T05:32:05.167Z,-2.81
2017-12-02T05:37:05.963Z,-2.63
2017-12-02T05:42:06.738Z,-2.49
2017-12-02T05:47:07.545Z,-2.45
2017-12-02T05:52:08.337Z,-2.33
2017-12-02T05:57:09.121Z,-2.32
2017-12-02T06:02:09.928Z,-2.23
2017-12-02T06:07:10.706Z,-2.18
2017-12-02T06:12:11.486Z,-2.12
2017-12-02T06:17:12.280Z,-2.12
2017-12-02T06:22:13.081Z,-2.11
2017-12-02T06:27:13.874Z,-2.09
2017-12-02T06:32:14.661Z,-2.15
2017-12-02T06:37:15.479Z,-2.16
2017-12-02T06:42:16.269Z,-2.17
2017-12-02T06:47:17.089Z,-2.18
2017-12-02T06:52:18.315Z,-2.10
2017-12-02T06:57:19.127Z,-2.10
2017-12-02T07:02:19.963Z,-2.07
2017-12-02T07:07:20.785Z,-2.06
2017-12-02T07:12:21.597Z,-2.04
2017-12-02T07:17:22.392Z,-1.97
2017-12-02T07:22:23.202Z,-2.06
2017-12-02T07:27:24.025Z,-1.94
2017-12-02T07:32:24.818Z,-2.04
2017-12-02T07:37:25.597Z,-1.93
2017-12-02T07:42:26.425Z,-1.93
2017-12-02T07:47:27.222Z,-1.84
2017-12-02T07:52:28.008Z,-1.80
2017-12-02T07:57:29.801Z,-1.84
2017-12-02T08:02:30.609Z,-1.81
2017-12-02T08:07:31.413Z,-1.75
2017-12-02T08:12:32.222Z,-1.66
2017-12-02T08:17:33.009Z,-1.47
2017-12-02T08:22:33.817Z,-1.33
2017-12-02T08:27:34.610Z,-1.17
2017-12-02T08:32:35.422Z,-1.15
2017-12-02T08:37:36.196Z,-1.09
2017-12-02T08:42:37.005Z,-1.07
2017-12-02T08:47:37.794Z,-0.85
2017-12-02T08:52:38.590Z,-0.90
2017-12-02T08:57:39.383Z,-0.70
2017-12-02T09:02:40.153Z,-0.49
2017-12-02T09:07:40.956Z,-0.38
2017-12-02T09:12:41.757Z,-0.30
2017-12-02T09:17:42.562Z,-0.38
2017-12-02T09:22:43.340Z,-0.11
2017-12-02T09:27:44.152Z,-0.02
2017-12-02T09:32:44.942Z,-0.07
2017-12-02T09:37:45.757Z,0.05
2017-12-02T09:42:46.548Z,0.00
2017-12-02T09:47:47.383Z,0.34
2017-12-02T09:52:48.229Z,0.53
2017-12-02T09:57:49.054Z,0.53
2017-12-02T10:18:41.610Z,0.74
2017-12-02T10:23:42.409Z,0.80
2017-12-02T10:28:43.254Z,0.79
2017-12-02T10:33:44.082Z,0.62
2017-12-02T10:38:44.902Z,0.62
2017-12-02T10:43:45.698Z,0.71
2017-12-02T10:48:46.523Z,0.65
2017-12-02T10:53:47.297Z,0.64
2017-12-02T10:58:48.085Z,0.80
2017-12-02T11:03:48.901Z,0.82
2017-12-02T11:08:49.753Z,0.65
2017-12-02T11:13:50.549Z,1.02
2017-12-02T11:18:51.358Z,1.07
2017-12-02T11:23:52.166Z,1.03
2017-12-02T11:28:52.971Z,1.01
2017-12-02T11:33:53.762Z,1.10
2017-12-02T11:38:54.561Z,0.95
2017-12-02T11:43:55.321Z,0.80
2017-12-02T11:48:56.105Z,0.93
2017-12-02T11:53:56.906Z,0.80
2017-12-02T11:58:57.694Z,0.88
2017-12-02T12:03:58.487Z,0.96
2017-12-02T12:08:59.297Z,1.19
2017-12-02T12:14:00.097Z,1.05
2017-12-02T12:19:00.884Z,0.93
2017-12-02T12:24:01.682Z,0.90
2017-12-02T12:29:02.488Z,0.98
2017-12-02T12:34:03.278Z,1.07
2017-12-02T12:39:04.121Z,0.94
2017-12-02T12:44:04.911Z,1.06
2017-12-02T12:49:05.721Z,1.00
2017-12-02T12:54:06.526Z,1.12
2017-12-02T12:59:07.301Z,1.40
2017-12-02T13:04:08.097Z,1.31
2017-12-02T13:09:08.905Z,1.35
2017-12-02T13:14:09.708Z,1.46
2017-12-02T13:19:10.476Z,1.67
2017-12-02T13:24:11.370Z,1.52
2017-12-02T13:29:12.157Z,1.55
2017-12-02T13:34:12.933Z,1.46
2017-12-02T13:39:13.713Z,1.38
2017-12-02T13:44:14.484Z,1.26
2017-12-02T13:49:15.245Z,1.14
2017-12-02T13:54:16.040Z,1.14
2017-12-02T13:59:16.803Z,1.16
2017-12-02T14:04:17.574Z,1.27
2017-12-02T14:09:18.382Z,1.24
2017-12-02T14:14:19.177Z,1.20
2017-12-02T14:19:19.945Z,1.08
2017-12-02T14:24:20.712Z,0.96
2017-12-02T14:29:21.489Z,0.94
2017-12-02T14:34:22.269Z,1.00
2017-12-02T14:39:23.030Z,0.96
2017-12-02T14:44:23.832Z,0.96
2017-12-02T14:49:24.585Z,0.98
2017-12-02T14:54:25.357Z,1.03
2017-12-02T14:59:26.161Z,1.07
2017-12-02T15:04:26.946Z,1.00
2017-12-02T15:09:27.709Z,0.92
2017-12-02T15:14:28.513Z,0.94
2017-12-02T15:19:32.773Z,0.91
2017-12-02T15:24:33.557Z,0.93
2017-12-02T15:29:34.355Z,0.89
2017-12-02T15:34:35.154Z,0.89
2017-12-02T15:39:35.948Z,0.93
2017-12-02T15:44:36.798Z,0.87
2017-12-02T15:49:37.605Z,0.95
2017-12-02T15:54:38.409Z,0.81
2017-12-02T15:59:39.209Z,0.74
2017-12-02T16:04:40.023Z,0.78
2017-12-02T16:09:40.825Z,0.79
2017-12-02T16:14:41.660Z,0.83
2017-12-02T16:19:42.469Z,0.76
2017-12-02T16:24:43.269Z,0.81
2017-12-02T16:29:44.114Z,0.78
2017-12-02T16:34:44.893Z,0.76
2017-12-02T16:39:45.718Z,0.76
2017-12-02T16:44:46.538Z,0.77
2017-12-02T16:49:47.313Z,0.69
2017-12-02T16:54:48.130Z,0.76
2017-12-02T16:59:48.945Z,0.66
2017-12-02T17:04:57.660Z,0.63
2017-12-02T17:09:58.485Z,0.68
2017-12-02T17:14:59.335Z,0.64
2017-12-02T17:20:00.072Z,0.64
2017-12-02T17:25:00.873Z,0.70
2017-12-02T17:30:01.665Z,0.75
2017-12-02T17:35:02.474Z,0.76
2017-12-02T17:40:03.288Z,0.78
2017-12-02T17:45:04.113Z,0.75
2017-12-02T17:50:04.914Z,0.78
2017-12-02T17:55:05.753Z,0.54
2017-12-02T18:00:06.591Z,0.60
2017-12-02T18:05:07.386Z,0.58
2017-12-02T18:10:08.157Z,0.61
2017-12-02T18:15:08.937Z,0.65
2017-12-02T18:20:09.720Z,0.59
2017-12-02T18:25:10.493Z,0.53
2017-12-02T18:30:11.281Z,0.55
2017-12-02T18:35:12.073Z,0.59
2017-12-02T18:40:12.858Z,0.55
2017-12-02T18:45:13.665Z,0.54
2017-12-02T18:50:14.445Z,0.54
2017-12-02T18:55:15.208Z,0.55
2017-12-02T19:00:15.997Z,0.49
2017-12-02T19:05:16.778Z,0.39
2017-12-02T19:10:17.545Z,0.34
2017-12-02T19:15:18.297Z,0.33
2017-12-02T19:20:19.112Z,0.23
2017-12-02T19:25:19.882Z,0.25
2017-12-02T19:30:20.662Z,0.22
2017-12-02T19:35:21.432Z,0.21
2017-12-02T19:40:22.218Z,0.13
2017-12-02T19:45:23.013Z,0.14
2017-12-02T19:50:23.777Z,0.08
2017-12-02T19:55:24.558Z,0.18
2017-12-02T20:00:25.385Z,0.09
2017-12-02T20:05:26.195Z,0.10
2017-12-02T20:10:27.009Z,0.13
2017-12-02T20:15:27.792Z,0.20
2017-12-02T20:20:28.562Z,0.10
2017-12-02T20:25:29.346Z,0.12
2017-12-02T20:30:30.134Z,0.10
2017-12-02T20:35:30.923Z,0.17
2017-12-02T20:40:31.710Z,0.14
2017-12-02T20:45:32.497Z,0.15
2017-12-02T20:50:33.305Z,0.12
2017-12-02T20:55:34.069Z,0.12
2017-12-02T21:00:34.861Z,0.20
2017-12-02T21:05:35.641Z,0.15
2017-12-02T21:10:36.423Z,0.16
2017-12-02T21:15:37.210Z,0.24
2017-12-02T21:20:38.002Z,0.14
2017-12-02T21:25:38.774Z,0.10
2017-12-02T21:30:39.557Z,0.22
2017-12-02T21:35:40.382Z,0.17
2017-12-02T21:40:41.244Z,0.20
2017-12-02T21:45:42.030Z,0.17
2017-12-02T21:50:42.830Z,0.14
2017-12-02T21:55:43.610Z,0.19
2017-12-02T22:00:44.385Z,0.15
2017-12-02T22:05:45.149Z,0.19
2017-12-02T22:10:45.929Z,0.21
2017-12-02T22:15:46.829Z,0.11
2017-12-02T22:20:47.602Z,0.12
2017-12-02T22:25:48.376Z,0.07
2017-12-02T22:30:49.154Z,0.08
2017-12-02T22:35:49.954Z,0.10
2017-12-02T22:40:50.720Z,0.12
2017-12-02T22:45:51.509Z,0.16
2017-12-02T22:50:52.312Z,0.12
2017-12-02T22:55:53.102Z,0.12
2017-12-02T23:00:53.872Z,0.09
2017-12-02T23:05:54.657Z,0.17
2017-12-02T23:10:55.445Z,0.18
2017-12-02T23:15:56.222Z,0.20
2017-12-02T23:20:57.014Z,0.14
2017-12-02T23:25:57.810Z,0.20
2017-12-02T23:30:58.609Z,0.16
2017-12-02T23:35:59.418Z,0.13
2017-12-02T23:41:00.197Z,0.11
2017-12-02T23:46:00.986Z,0.09
2017-12-02T23:51:01.833Z,0.05
2017-12-02T23:56:02.619Z,0.09
